sensor_id;sensor_type;location;lat;lon;timestamp;P1;durP1;ratioP1;P2;durP2;ratioP2
43160;SDS011;40968;52.342;5.528;2024-03-23T00:53:48;35.85;;;9.65;;
43160;SDS011;40968;52.342;5.528;2024-03-23T00:56:15;40.80;;;9.55;;
43160;SDS011;40968;52.342;5.528;2024-03-23T00:58:40;43.78;;;9.60;;
43160;SDS011;40968;52.342;5.528;2024-03-23T01:01:07;44.65;;;9.88;;
43160;SDS011;40968;52.342;5.528;2024-03-23T01:03:33;40.75;;;9.43;;
43160;SDS011;40968;52.342;5.528;2024-03-23T01:05:59;49.88;;;10.57;;
43160;SDS011;40968;52.342;5.528;2024-03-23T01:08:26;35.03;;;10.77;;
43160;SDS011;40968;52.342;5.528;2024-03-23T01:10:55;34.38;;;10.05;;
43160;SDS011;40968;52.342;5.528;2024-03-23T01:13:22;36.60;;;9.93;;
43160;SDS011;40968;52.342;5.528;2024-03-23T01:15:49;49.95;;;9.95;;
43160;SDS011;40968;52.342;5.528;2024-03-23T01:18:14;33.42;;;10.07;;
43160;SDS011;40968;52.342;5.528;2024-03-23T01:20:41;34.65;;;10.27;;
43160;SDS011;40968;52.342;5.528;2024-03-23T01:23:06;46.00;;;10.90;;
43160;SDS011;40968;52.342;5.528;2024-03-23T01:25:34;45.53;;;10.82;;
43160;SDS011;40968;52.342;5.528;2024-03-23T01:28:00;40.67;;;9.88;;
43160;SDS011;40968;52.342;5.528;2024-03-23T01:30:26;44.38;;;10.00;;
43160;SDS011;40968;52.342;5.528;2024-03-23T01:32:52;43.78;;;9.07;;
43160;SDS011;40968;52.342;5.528;2024-03-23T01:35:19;42.67;;;10.60;;
43160;SDS011;40968;52.342;5.528;2024-03-23T01:37:44;30.00;;;8.82;;
43160;SDS011;40968;52.342;5.528;2024-03-23T01:40:11;56.10;;;9.55;;
43160;SDS011;40968;52.342;5.528;2024-03-23T01:42:39;43.67;;;10.65;;
43160;SDS011;40968;52.342;5.528;2024-03-23T01:45:07;38.72;;;9.45;;
43160;SDS011;40968;52.342;5.528;2024-03-23T01:47:34;33.92;;;8.93;;
43160;SDS011;40968;52.342;5.528;2024-03-23T01:50:00;29.60;;;8.35;;
43160;SDS011;40968;52.342;5.528;2024-03-23T01:52:26;35.25;;;9.65;;
43160;SDS011;40968;52.342;5.528;2024-03-23T01:54:53;39.53;;;8.90;;
43160;SDS011;40968;52.342;5.528;2024-03-23T01:57:19;37.78;;;9.68;;
43160;SDS011;40968;52.342;5.528;2024-03-23T01:59:47;33.97;;;8.88;;
43160;SDS011;40968;52.342;5.528;2024-03-23T02:02:14;37.15;;;9.18;;
43160;SDS011;40968;52.342;5.528;2024-03-23T02:04:42;39.17;;;9.18;;
43160;SDS011;40968;52.342;5.528;2024-03-23T02:07:08;47.03;;;9.45;;
43160;SDS011;40968;52.342;5.528;2024-03-23T02:09:34;56.40;;;9.80;;
43160;SDS011;40968;52.342;5.528;2024-03-23T02:12:01;38.58;;;9.27;;
43160;SDS011;40968;52.342;5.528;2024-03-23T02:14:28;45.90;;;9.75;;
43160;SDS011;40968;52.342;5.528;2024-03-23T02:16:55;40.28;;;10.68;;
43160;SDS011;40968;52.342;5.528;2024-03-23T02:19:21;41.58;;;9.52;;
43160;SDS011;40968;52.342;5.528;2024-03-23T02:21:47;38.38;;;9.63;;
43160;SDS011;40968;52.342;5.528;2024-03-23T02:24:14;34.90;;;8.00;;
43160;SDS011;40968;52.342;5.528;2024-03-23T02:26:40;41.13;;;10.45;;
43160;SDS011;40968;52.342;5.528;2024-03-23T02:29:06;36.35;;;8.80;;
43160;SDS011;40968;52.342;5.528;2024-03-23T02:31:34;40.50;;;10.05;;
43160;SDS011;40968;52.342;5.528;2024-03-23T02:34:00;42.60;;;11.05;;
43160;SDS011;40968;52.342;5.528;2024-03-23T02:36:26;37.78;;;9.52;;
43160;SDS011;40968;52.342;5.528;2024-03-23T02:38:53;40.85;;;10.23;;
43160;SDS011;40968;52.342;5.528;2024-03-23T02:41:19;48.10;;;10.60;;
43160;SDS011;40968;52.342;5.528;2024-03-23T02:43:48;39.28;;;9.57;;
43160;SDS011;40968;52.342;5.528;2024-03-23T02:46:14;40.42;;;9.73;;
43160;SDS011;40968;52.342;5.528;2024-03-23T02:48:41;37.03;;;11.07;;
43160;SDS011;40968;52.342;5.528;2024-03-23T02:51:06;42.63;;;10.25;;
43160;SDS011;40968;52.342;5.528;2024-03-23T02:53:33;43.17;;;10.02;;
43160;SDS011;40968;52.342;5.528;2024-03-23T02:55:58;43.30;;;9.88;;
43160;SDS011;40968;52.342;5.528;2024-03-23T02:58:26;37.95;;;10.35;;
43160;SDS011;40968;52.342;5.528;2024-03-23T03:00:52;32.83;;;9.65;;
43160;SDS011;40968;52.342;5.528;2024-03-23T03:03:18;36.63;;;9.10;;
43160;SDS011;40968;52.342;5.528;2024-03-23T03:05:44;58.45;;;10.23;;
43160;SDS011;40968;52.342;5.528;2024-03-23T03:08:10;42.15;;;10.77;;
43160;SDS011;40968;52.342;5.528;2024-03-23T03:10:36;42.42;;;11.13;;
43160;SDS011;40968;52.342;5.528;2024-03-23T03:13:03;50.55;;;10.02;;
43160;SDS011;40968;52.342;5.528;2024-03-23T03:15:30;59.55;;;9.55;;
43160;SDS011;40968;52.342;5.528;2024-03-23T03:17:56;40.08;;;9.23;;
43160;SDS011;40968;52.342;5.528;2024-03-23T03:20:22;39.10;;;10.93;;
43160;SDS011;40968;52.342;5.528;2024-03-23T03:22:49;40.78;;;9.50;;
43160;SDS011;40968;52.342;5.528;2024-03-23T03:25:14;36.60;;;9.05;;
43160;SDS011;40968;52.342;5.528;2024-03-23T03:27:41;36.58;;;9.27;;
43160;SDS011;40968;52.342;5.528;2024-03-23T03:30:07;43.58;;;8.25;;
43160;SDS011;40968;52.342;5.528;2024-03-23T03:32:35;39.33;;;9.45;;
43160;SDS011;40968;52.342;5.528;2024-03-23T03:35:01;33.40;;;9.02;;
43160;SDS011;40968;52.342;5.528;2024-03-23T03:37:27;34.38;;;8.77;;
43160;SDS011;40968;52.342;5.528;2024-03-23T03:39:53;40.60;;;8.52;;
43160;SDS011;40968;52.342;5.528;2024-03-23T03:42:19;41.75;;;8.40;;
43160;SDS011;40968;52.342;5.528;2024-03-23T03:44:45;38.50;;;8.55;;
43160;SDS011;40968;52.342;5.528;2024-03-23T03:47:11;30.13;;;7.93;;
43160;SDS011;40968;52.342;5.528;2024-03-23T03:49:38;30.27;;;8.82;;
43160;SDS011;40968;52.342;5.528;2024-03-23T03:52:05;32.15;;;7.35;;
43160;SDS011;40968;52.342;5.528;2024-03-23T03:54:31;28.98;;;7.50;;
43160;SDS011;40968;52.342;5.528;2024-03-23T03:56:57;30.42;;;7.82;;
43160;SDS011;40968;52.342;5.528;2024-03-23T03:59:23;35.92;;;8.00;;
43160;SDS011;40968;52.342;5.528;2024-03-23T04:01:49;36.45;;;8.10;;
43160;SDS011;40968;52.342;5.528;2024-03-23T04:04:15;36.40;;;7.70;;
43160;SDS011;40968;52.342;5.528;2024-03-23T04:06:43;34.33;;;8.35;;
43160;SDS011;40968;52.342;5.528;2024-03-23T04:09:09;26.58;;;7.50;;
43160;SDS011;40968;52.342;5.528;2024-03-23T04:11:36;34.20;;;7.43;;
43160;SDS011;40968;52.342;5.528;2024-03-23T04:14:01;38.20;;;9.23;;
43160;SDS011;40968;52.342;5.528;2024-03-23T04:16:28;32.55;;;9.48;;
43160;SDS011;40968;52.342;5.528;2024-03-23T04:18:54;22.98;;;8.85;;
43160;SDS011;40968;52.342;5.528;2024-03-23T04:21:21;31.35;;;8.75;;
43160;SDS011;40968;52.342;5.528;2024-03-23T04:23:48;23.92;;;7.18;;
43160;SDS011;40968;52.342;5.528;2024-03-23T04:26:15;37.45;;;7.90;;
43160;SDS011;40968;52.342;5.528;2024-03-23T04:28:41;36.67;;;6.55;;
43160;SDS011;40968;52.342;5.528;2024-03-23T04:31:08;21.77;;;6.80;;
43160;SDS011;40968;52.342;5.528;2024-03-23T04:33:33;36.05;;;7.05;;
43160;SDS011;40968;52.342;5.528;2024-03-23T04:36:00;31.35;;;6.93;;
43160;SDS011;40968;52.342;5.528;2024-03-23T04:38:25;26.98;;;7.20;;
43160;SDS011;40968;52.342;5.528;2024-03-23T04:40:56;28.75;;;6.57;;
43160;SDS011;40968;52.342;5.528;2024-03-23T04:43:24;22.20;;;6.47;;
43160;SDS011;40968;52.342;5.528;2024-03-23T04:45:51;34.72;;;7.60;;
43160;SDS011;40968;52.342;5.528;2024-03-23T04:48:19;24.40;;;6.20;;
43160;SDS011;40968;52.342;5.528;2024-03-23T04:50:46;35.97;;;5.70;;
43160;SDS011;40968;52.342;5.528;2024-03-23T04:53:13;23.50;;;5.43;;
43160;SDS011;40968;52.342;5.528;2024-03-23T04:55:39;25.50;;;5.55;;
43160;SDS011;40968;52.342;5.528;2024-03-23T04:58:07;55.63;;;7.28;;
43160;SDS011;40968;52.342;5.528;2024-03-23T05:00:32;22.70;;;5.05;;
43160;SDS011;40968;52.342;5.528;2024-03-23T05:02:59;20.15;;;5.15;;
43160;SDS011;40968;52.342;5.528;2024-03-23T05:05:24;22.73;;;5.20;;
43160;SDS011;40968;52.342;5.528;2024-03-23T05:07:51;22.75;;;4.72;;
43160;SDS011;40968;52.342;5.528;2024-03-23T05:10:16;18.65;;;4.47;;
43160;SDS011;40968;52.342;5.528;2024-03-23T05:12:43;29.52;;;6.13;;
43160;SDS011;40968;52.342;5.528;2024-03-23T05:15:11;20.92;;;4.50;;
43160;SDS011;40968;52.342;5.528;2024-03-23T05:17:38;26.17;;;4.80;;
43160;SDS011;40968;52.342;5.528;2024-03-23T05:20:04;21.63;;;4.70;;
43160;SDS011;40968;52.342;5.528;2024-03-23T05:25:00;16.70;;;4.35;;
43160;SDS011;40968;52.342;5.528;2024-03-23T05:27:29;18.00;;;4.25;;
43160;SDS011;40968;52.342;5.528;2024-03-23T05:29:55;15.93;;;3.40;;
43160;SDS011;40968;52.342;5.528;2024-03-23T05:32:22;32.40;;;4.25;;
43160;SDS011;40968;52.342;5.528;2024-03-23T05:34:49;16.27;;;3.58;;
43160;SDS011;40968;52.342;5.528;2024-03-23T05:37:20;16.67;;;3.47;;
43160;SDS011;40968;52.342;5.528;2024-03-23T05:39:47;13.35;;;3.03;;
43160;SDS011;40968;52.342;5.528;2024-03-23T05:42:14;11.30;;;3.13;;
43160;SDS011;40968;52.342;5.528;2024-03-23T05:44:42;13.18;;;3.35;;
43160;SDS011;40968;52.342;5.528;2024-03-23T05:47:08;26.38;;;5.10;;
43160;SDS011;40968;52.342;5.528;2024-03-23T05:49:36;14.98;;;3.72;;
43160;SDS011;40968;52.342;5.528;2024-03-23T05:52:02;23.67;;;5.25;;
43160;SDS011;40968;52.342;5.528;2024-03-23T05:54:29;23.27;;;4.78;;
43160;SDS011;40968;52.342;5.528;2024-03-23T05:56:55;18.85;;;3.97;;
43160;SDS011;40968;52.342;5.528;2024-03-23T05:59:21;24.08;;;3.55;;
43160;SDS011;40968;52.342;5.528;2024-03-23T06:01:47;14.10;;;3.42;;
43160;SDS011;40968;52.342;5.528;2024-03-23T06:04:14;16.27;;;3.42;;
43160;SDS011;40968;52.342;5.528;2024-03-23T06:06:41;15.25;;;3.63;;
43160;SDS011;40968;52.342;5.528;2024-03-23T06:09:07;15.45;;;3.50;;
43160;SDS011;40968;52.342;5.528;2024-03-23T06:11:33;17.92;;;3.25;;
43160;SDS011;40968;52.342;5.528;2024-03-23T06:13:59;21.98;;;3.78;;
43160;SDS011;40968;52.342;5.528;2024-03-23T06:16:25;17.08;;;3.42;;
43160;SDS011;40968;52.342;5.528;2024-03-23T06:18:53;18.85;;;3.40;;
43160;SDS011;40968;52.342;5.528;2024-03-23T06:21:19;22.13;;;3.88;;
43160;SDS011;40968;52.342;5.528;2024-03-23T06:23:51;19.08;;;3.72;;
43160;SDS011;40968;52.342;5.528;2024-03-23T06:26:17;16.13;;;3.45;;
43160;SDS011;40968;52.342;5.528;2024-03-23T06:28:44;20.90;;;3.55;;
43160;SDS011;40968;52.342;5.528;2024-03-23T06:31:10;13.73;;;4.07;;
43160;SDS011;40968;52.342;5.528;2024-03-23T06:33:36;15.48;;;4.10;;
43160;SDS011;40968;52.342;5.528;2024-03-23T06:36:02;14.90;;;3.88;;
43160;SDS011;40968;52.342;5.528;2024-03-23T06:38:29;20.10;;;3.88;;
43160;SDS011;40968;52.342;5.528;2024-03-23T06:40:56;14.85;;;3.80;;
43160;SDS011;40968;52.342;5.528;2024-03-23T06:43:22;12.35;;;3.60;;
43160;SDS011;40968;52.342;5.528;2024-03-23T06:45:52;19.40;;;3.92;;
43160;SDS011;40968;52.342;5.528;2024-03-23T06:48:18;21.45;;;3.85;;
43160;SDS011;40968;52.342;5.528;2024-03-23T06:50:44;26.33;;;4.10;;
43160;SDS011;40968;52.342;5.528;2024-03-23T06:53:11;21.38;;;4.63;;
43160;SDS011;40968;52.342;5.528;2024-03-23T06:55:36;17.45;;;4.70;;
43160;SDS011;40968;52.342;5.528;2024-03-23T06:58:04;12.85;;;3.95;;
43160;SDS011;40968;52.342;5.528;2024-03-23T07:00:30;20.60;;;4.35;;
43160;SDS011;40968;52.342;5.528;2024-03-23T07:02:57;16.17;;;3.72;;
43160;SDS011;40968;52.342;5.528;2024-03-23T07:05:22;14.32;;;3.75;;
43160;SDS011;40968;52.342;5.528;2024-03-23T07:07:49;20.35;;;4.47;;
43160;SDS011;40968;52.342;5.528;2024-03-23T07:10:15;20.15;;;4.80;;
43160;SDS011;40968;52.342;5.528;2024-03-23T07:12:41;20.60;;;4.63;;
43160;SDS011;40968;52.342;5.528;2024-03-23T07:15:08;15.07;;;3.97;;
43160;SDS011;40968;52.342;5.528;2024-03-23T07:17:36;16.35;;;3.97;;
43160;SDS011;40968;52.342;5.528;2024-03-23T07:20:02;16.52;;;4.85;;
43160;SDS011;40968;52.342;5.528;2024-03-23T07:22:29;21.83;;;3.83;;
43160;SDS011;40968;52.342;5.528;2024-03-23T07:24:54;28.52;;;5.35;;
43160;SDS011;40968;52.342;5.528;2024-03-23T07:27:21;18.48;;;4.50;;
43160;SDS011;40968;52.342;5.528;2024-03-23T07:29:46;19.63;;;5.20;;
43160;SDS011;40968;52.342;5.528;2024-03-23T07:32:14;30.02;;;4.45;;
43160;SDS011;40968;52.342;5.528;2024-03-23T07:34:40;22.13;;;5.03;;
43160;SDS011;40968;52.342;5.528;2024-03-23T07:37:08;23.63;;;5.15;;
43160;SDS011;40968;52.342;5.528;2024-03-23T07:39:34;16.27;;;5.05;;
43160;SDS011;40968;52.342;5.528;2024-03-23T07:42:00;22.30;;;5.90;;
43160;SDS011;40968;52.342;5.528;2024-03-23T07:44:26;24.23;;;5.28;;
43160;SDS011;40968;52.342;5.528;2024-03-23T07:46:52;25.52;;;7.68;;
43160;SDS011;40968;52.342;5.528;2024-03-23T07:49:19;31.48;;;5.18;;
43160;SDS011;40968;52.342;5.528;2024-03-23T07:51:46;18.20;;;4.80;;
43160;SDS011;40968;52.342;5.528;2024-03-23T07:54:11;26.13;;;4.38;;
43160;SDS011;40968;52.342;5.528;2024-03-23T07:56:38;14.52;;;4.28;;
43160;SDS011;40968;52.342;5.528;2024-03-23T07:59:03;23.00;;;5.05;;
43160;SDS011;40968;52.342;5.528;2024-03-23T08:01:30;18.15;;;4.32;;
43160;SDS011;40968;52.342;5.528;2024-03-23T08:03:55;11.30;;;3.40;;
43160;SDS011;40968;52.342;5.528;2024-03-23T08:06:23;12.30;;;3.72;;
43160;SDS011;40968;52.342;5.528;2024-03-23T08:08:50;18.15;;;3.97;;
43160;SDS011;40968;52.342;5.528;2024-03-23T08:11:24;15.10;;;4.30;;
43160;SDS011;40968;52.342;5.528;2024-03-23T08:13:50;15.15;;;4.00;;
43160;SDS011;40968;52.342;5.528;2024-03-23T08:16:16;16.38;;;4.20;;
43160;SDS011;40968;52.342;5.528;2024-03-23T08:18:42;16.52;;;3.25;;
43160;SDS011;40968;52.342;5.528;2024-03-23T08:21:09;11.07;;;3.65;;
43160;SDS011;40968;52.342;5.528;2024-03-23T08:23:36;24.73;;;5.28;;
43160;SDS011;40968;52.342;5.528;2024-03-23T08:26:04;16.25;;;3.83;;
43160;SDS011;40968;52.342;5.528;2024-03-23T08:28:30;16.98;;;3.45;;
43160;SDS011;40968;52.342;5.528;2024-03-23T08:31:00;15.98;;;3.78;;
43160;SDS011;40968;52.342;5.528;2024-03-23T08:33:26;23.15;;;4.78;;
43160;SDS011;40968;52.342;5.528;2024-03-23T08:35:53;21.33;;;4.53;;
43160;SDS011;40968;52.342;5.528;2024-03-23T08:38:20;17.88;;;4.40;;
43160;SDS011;40968;52.342;5.528;2024-03-23T08:40:48;13.80;;;3.08;;
43160;SDS011;40968;52.342;5.528;2024-03-23T08:43:21;15.77;;;4.22;;
43160;SDS011;40968;52.342;5.528;2024-03-23T08:45:48;10.80;;;3.45;;
43160;SDS011;40968;52.342;5.528;2024-03-23T08:48:14;15.25;;;3.33;;
43160;SDS011;40968;52.342;5.528;2024-03-23T08:50:40;12.23;;;3.28;;
43160;SDS011;40968;52.342;5.528;2024-03-23T08:53:06;14.50;;;2.97;;
43160;SDS011;40968;52.342;5.528;2024-03-23T08:55:33;21.08;;;2.92;;
43160;SDS011;40968;52.342;5.528;2024-03-23T08:57:59;16.35;;;3.30;;
43160;SDS011;40968;52.342;5.528;2024-03-23T09:00:26;15.50;;;3.38;;
43160;SDS011;40968;52.342;5.528;2024-03-23T09:02:52;9.45;;;2.90;;
43160;SDS011;40968;52.342;5.528;2024-03-23T09:05:18;13.30;;;3.67;;
43160;SDS011;40968;52.342;5.528;2024-03-23T09:07:44;13.10;;;2.92;;
43160;SDS011;40968;52.342;5.528;2024-03-23T09:10:10;14.05;;;3.20;;
43160;SDS011;40968;52.342;5.528;2024-03-23T09:12:36;14.57;;;3.28;;
43160;SDS011;40968;52.342;5.528;2024-03-23T09:15:04;16.77;;;2.65;;
43160;SDS011;40968;52.342;5.528;2024-03-23T09:17:30;15.82;;;3.05;;
43160;SDS011;40968;52.342;5.528;2024-03-23T09:19:57;8.40;;;2.40;;
43160;SDS011;40968;52.342;5.528;2024-03-23T09:22:23;17.23;;;2.75;;
43160;SDS011;40968;52.342;5.528;2024-03-23T09:24:49;12.65;;;3.17;;
43160;SDS011;40968;52.342;5.528;2024-03-23T09:27:15;14.07;;;2.95;;
43160;SDS011;40968;52.342;5.528;2024-03-23T09:29:41;10.75;;;2.85;;
43160;SDS011;40968;52.342;5.528;2024-03-23T09:32:08;15.10;;;2.75;;
43160;SDS011;40968;52.342;5.528;2024-03-23T09:34:35;17.13;;;2.50;;
43160;SDS011;40968;52.342;5.528;2024-03-23T09:37:00;9.23;;;2.30;;
43160;SDS011;40968;52.342;5.528;2024-03-23T09:39:27;17.55;;;2.28;;
43160;SDS011;40968;52.342;5.528;2024-03-23T09:41:56;9.60;;;2.30;;
43160;SDS011;40968;52.342;5.528;2024-03-23T09:44:22;9.93;;;1.83;;
43160;SDS011;40968;52.342;5.528;2024-03-23T09:46:51;12.95;;;2.25;;
43160;SDS011;40968;52.342;5.528;2024-03-23T09:49:19;8.13;;;1.63;;
43160;SDS011;40968;52.342;5.528;2024-03-23T09:51:45;3.97;;;1.13;;
43160;SDS011;40968;52.342;5.528;2024-03-23T09:54:11;7.18;;;1.77;;
43160;SDS011;40968;52.342;5.528;2024-03-23T09:56:37;21.00;;;2.35;;
43160;SDS011;40968;52.342;5.528;2024-03-23T09:59:03;7.32;;;2.17;;
43160;SDS011;40968;52.342;5.528;2024-03-23T10:01:29;16.85;;;2.78;;
43160;SDS011;40968;52.342;5.528;2024-03-23T10:03:56;11.02;;;2.60;;
43160;SDS011;40968;52.342;5.528;2024-03-23T10:06:23;8.68;;;2.88;;
43160;SDS011;40968;52.342;5.528;2024-03-23T10:08:51;11.55;;;2.35;;
43160;SDS011;40968;52.342;5.528;2024-03-23T10:11:17;21.63;;;2.42;;
43160;SDS011;40968;52.342;5.528;2024-03-23T10:13:46;12.98;;;3.05;;
43160;SDS011;40968;52.342;5.528;2024-03-23T10:16:12;17.13;;;2.90;;
43160;SDS011;40968;52.342;5.528;2024-03-23T10:18:46;13.23;;;3.33;;
43160;SDS011;40968;52.342;5.528;2024-03-23T10:21:13;13.23;;;3.10;;
43160;SDS011;40968;52.342;5.528;2024-03-23T10:23:42;14.82;;;3.03;;
43160;SDS011;40968;52.342;5.528;2024-03-23T10:26:16;10.40;;;2.85;;
43160;SDS011;40968;52.342;5.528;2024-03-23T10:28:53;11.50;;;2.58;;
43160;SDS011;40968;52.342;5.528;2024-03-23T10:31:21;13.75;;;3.58;;
43160;SDS011;40968;52.342;5.528;2024-03-23T10:33:48;13.98;;;3.35;;
43160;SDS011;40968;52.342;5.528;2024-03-23T10:36:14;30.77;;;4.95;;
43160;SDS011;40968;52.342;5.528;2024-03-23T10:38:43;15.77;;;3.25;;
43160;SDS011;40968;52.342;5.528;2024-03-23T10:41:09;15.15;;;3.35;;
43160;SDS011;40968;52.342;5.528;2024-03-23T10:43:37;13.57;;;2.78;;
43160;SDS011;40968;52.342;5.528;2024-03-23T10:46:03;8.48;;;3.28;;
43160;SDS011;40968;52.342;5.528;2024-03-23T10:48:29;11.52;;;3.10;;
43160;SDS011;40968;52.342;5.528;2024-03-23T10:50:56;13.25;;;3.33;;
43160;SDS011;40968;52.342;5.528;2024-03-23T10:53:24;13.38;;;2.92;;
43160;SDS011;40968;52.342;5.528;2024-03-23T10:55:52;10.65;;;2.85;;
43160;SDS011;40968;52.342;5.528;2024-03-23T10:58:21;14.15;;;2.60;;
43160;SDS011;40968;52.342;5.528;2024-03-23T11:00:51;21.95;;;3.20;;
43160;SDS011;40968;52.342;5.528;2024-03-23T11:03:31;12.10;;;2.60;;
43160;SDS011;40968;52.342;5.528;2024-03-23T11:05:58;9.10;;;2.90;;
43160;SDS011;40968;52.342;5.528;2024-03-23T11:08:32;10.18;;;2.90;;
43160;SDS011;40968;52.342;5.528;2024-03-23T11:13:47;8.02;;;2.60;;
43160;SDS011;40968;52.342;5.528;2024-03-23T11:16:14;12.52;;;2.60;;
43160;SDS011;40968;52.342;5.528;2024-03-23T11:18:41;12.50;;;2.47;;
43160;SDS011;40968;52.342;5.528;2024-03-23T11:21:07;12.07;;;2.53;;
43160;SDS011;40968;52.342;5.528;2024-03-23T11:23:33;14.70;;;2.97;;
43160;SDS011;40968;52.342;5.528;2024-03-23T11:25:59;12.65;;;3.03;;
43160;SDS011;40968;52.342;5.528;2024-03-23T11:28:27;25.05;;;3.78;;
43160;SDS011;40968;52.342;5.528;2024-03-23T11:30:52;13.57;;;3.47;;
43160;SDS011;40968;52.342;5.528;2024-03-23T11:33:19;15.85;;;2.63;;
43160;SDS011;40968;52.342;5.528;2024-03-23T11:35:45;12.38;;;2.50;;
43160;SDS011;40968;52.342;5.528;2024-03-23T11:38:11;19.23;;;2.95;;
43160;SDS011;40968;52.342;5.528;2024-03-23T11:40:39;10.25;;;2.33;;
43160;SDS011;40968;52.342;5.528;2024-03-23T11:43:07;11.00;;;2.97;;
43160;SDS011;40968;52.342;5.528;2024-03-23T11:45:35;27.45;;;3.33;;
43160;SDS011;40968;52.342;5.528;2024-03-23T11:48:03;13.50;;;3.65;;
43160;SDS011;40968;52.342;5.528;2024-03-23T11:50:30;12.18;;;2.65;;
43160;SDS011;40968;52.342;5.528;2024-03-23T11:53:06;12.52;;;2.60;;
43160;SDS011;40968;52.342;5.528;2024-03-23T11:55:38;8.55;;;2.20;;
43160;SDS011;40968;52.342;5.528;2024-03-23T11:58:06;14.38;;;2.25;;
43160;SDS011;40968;52.342;5.528;2024-03-23T12:00:31;12.63;;;2.60;;
43160;SDS011;40968;52.342;5.528;2024-03-23T12:03:01;19.85;;;4.15;;
43160;SDS011;40968;52.342;5.528;2024-03-23T12:05:26;11.43;;;2.70;;
43160;SDS011;40968;52.342;5.528;2024-03-23T12:07:53;15.73;;;3.10;;
43160;SDS011;40968;52.342;5.528;2024-03-23T12:10:19;20.13;;;2.45;;
43160;SDS011;40968;52.342;5.528;2024-03-23T12:12:45;12.77;;;3.15;;
43160;SDS011;40968;52.342;5.528;2024-03-23T12:15:11;12.45;;;2.08;;
43160;SDS011;40968;52.342;5.528;2024-03-23T12:17:38;31.58;;;3.53;;
43160;SDS011;40968;52.342;5.528;2024-03-23T12:20:06;8.98;;;2.65;;
43160;SDS011;40968;52.342;5.528;2024-03-23T12:22:33;27.17;;;3.22;;
43160;SDS011;40968;52.342;5.528;2024-03-23T12:25:00;10.27;;;2.90;;
43160;SDS011;40968;52.342;5.528;2024-03-23T12:27:27;15.48;;;2.92;;
43160;SDS011;40968;52.342;5.528;2024-03-23T12:29:52;15.27;;;3.17;;
43160;SDS011;40968;52.342;5.528;2024-03-23T12:32:19;17.27;;;3.50;;
43160;SDS011;40968;52.342;5.528;2024-03-23T12:34:45;19.08;;;2.42;;
43160;SDS011;40968;52.342;5.528;2024-03-23T12:37:13;13.27;;;2.35;;
43160;SDS011;40968;52.342;5.528;2024-03-23T12:39:39;17.42;;;3.10;;
43160;SDS011;40968;52.342;5.528;2024-03-23T12:42:06;9.02;;;2.10;;
43160;SDS011;40968;52.342;5.528;2024-03-23T12:44:32;12.43;;;2.78;;
43160;SDS011;40968;52.342;5.528;2024-03-23T12:46:58;12.52;;;2.30;;
43160;SDS011;40968;52.342;5.528;2024-03-23T12:49:24;11.98;;;2.95;;
43160;SDS011;40968;52.342;5.528;2024-03-23T12:51:53;6.35;;;1.27;;
43160;SDS011;40968;52.342;5.528;2024-03-23T12:54:21;9.30;;;1.52;;
43160;SDS011;40968;52.342;5.528;2024-03-23T12:56:48;9.63;;;1.90;;
43160;SDS011;40968;52.342;5.528;2024-03-23T12:59:14;6.38;;;1.50;;
43160;SDS011;40968;52.342;5.528;2024-03-23T13:01:41;5.72;;;1.88;;
43160;SDS011;40968;52.342;5.528;2024-03-23T13:04:07;7.15;;;1.60;;
43160;SDS011;40968;52.342;5.528;2024-03-23T13:06:34;4.38;;;1.60;;
43160;SDS011;40968;52.342;5.528;2024-03-23T13:08:59;7.75;;;1.75;;
43160;SDS011;40968;52.342;5.528;2024-03-23T13:11:27;7.38;;;1.80;;
43160;SDS011;40968;52.342;5.528;2024-03-23T13:13:53;4.97;;;2.28;;
43160;SDS011;40968;52.342;5.528;2024-03-23T13:16:20;10.20;;;2.78;;
43160;SDS011;40968;52.342;5.528;2024-03-23T13:18:45;9.00;;;2.25;;
43160;SDS011;40968;52.342;5.528;2024-03-23T13:21:12;8.98;;;1.73;;
43160;SDS011;40968;52.342;5.528;2024-03-23T13:23:37;11.63;;;2.33;;
43160;SDS011;40968;52.342;5.528;2024-03-23T13:26:07;11.43;;;2.30;;
43160;SDS011;40968;52.342;5.528;2024-03-23T13:28:34;26.23;;;9.52;;
43160;SDS011;40968;52.342;5.528;2024-03-23T13:31:01;24.48;;;6.82;;
43160;SDS011;40968;52.342;5.528;2024-03-23T13:33:28;10.93;;;2.95;;
43160;SDS011;40968;52.342;5.528;2024-03-23T13:35:56;6.95;;;1.70;;
43160;SDS011;40968;52.342;5.528;2024-03-23T13:38:21;6.85;;;2.33;;
43160;SDS011;40968;52.342;5.528;2024-03-23T13:40:52;8.85;;;2.58;;
43160;SDS011;40968;52.342;5.528;2024-03-23T13:43:18;8.98;;;2.90;;
43160;SDS011;40968;52.342;5.528;2024-03-23T13:45:46;7.57;;;2.95;;
43160;SDS011;40968;52.342;5.528;2024-03-23T13:48:14;32.83;;;12.93;;
43160;SDS011;40968;52.342;5.528;2024-03-23T13:50:40;13.32;;;5.30;;
43160;SDS011;40968;52.342;5.528;2024-03-23T13:53:07;13.18;;;5.07;;
43160;SDS011;40968;52.342;5.528;2024-03-23T13:55:33;11.95;;;2.55;;
43160;SDS011;40968;52.342;5.528;2024-03-23T13:58:00;10.15;;;3.50;;
43160;SDS011;40968;52.342;5.528;2024-03-23T14:00:26;15.68;;;7.97;;
43160;SDS011;40968;52.342;5.528;2024-03-23T14:02:54;14.02;;;2.35;;
43160;SDS011;40968;52.342;5.528;2024-03-23T14:05:19;11.65;;;5.65;;
43160;SDS011;40968;52.342;5.528;2024-03-23T14:07:46;12.10;;;3.45;;
43160;SDS011;40968;52.342;5.528;2024-03-23T14:10:11;8.02;;;3.85;;
43160;SDS011;40968;52.342;5.528;2024-03-23T14:12:38;9.70;;;4.80;;
43160;SDS011;40968;52.342;5.528;2024-03-23T14:15:05;8.38;;;2.30;;
43160;SDS011;40968;52.342;5.528;2024-03-23T14:17:32;11.38;;;3.08;;
43160;SDS011;40968;52.342;5.528;2024-03-23T14:19:59;11.02;;;2.65;;
43160;SDS011;40968;52.342;5.528;2024-03-23T14:22:26;12.60;;;3.00;;
43160;SDS011;40968;52.342;5.528;2024-03-23T14:24:52;8.30;;;2.42;;
43160;SDS011;40968;52.342;5.528;2024-03-23T14:27:18;10.15;;;3.30;;
43160;SDS011;40968;52.342;5.528;2024-03-23T14:29:45;9.32;;;2.28;;
43160;SDS011;40968;52.342;5.528;2024-03-23T14:32:12;15.13;;;4.85;;
43160;SDS011;40968;52.342;5.528;2024-03-23T14:34:37;8.10;;;2.40;;
43160;SDS011;40968;52.342;5.528;2024-03-23T14:37:05;8.65;;;2.22;;
43160;SDS011;40968;52.342;5.528;2024-03-23T14:39:31;9.45;;;2.50;;
43160;SDS011;40968;52.342;5.528;2024-03-23T14:41:59;10.77;;;3.13;;
43160;SDS011;40968;52.342;5.528;2024-03-23T14:44:25;14.70;;;7.32;;
43160;SDS011;40968;52.342;5.528;2024-03-23T14:46:51;10.18;;;2.30;;
43160;SDS011;40968;52.342;5.528;2024-03-23T14:49:17;9.88;;;2.90;;
43160;SDS011;40968;52.342;5.528;2024-03-23T14:51:43;5.97;;;2.33;;
43160;SDS011;40968;52.342;5.528;2024-03-23T14:54:10;7.60;;;2.13;;
43160;SDS011;40968;52.342;5.528;2024-03-23T14:56:37;8.70;;;2.88;;
43160;SDS011;40968;52.342;5.528;2024-03-23T14:59:03;11.98;;;2.40;;
43160;SDS011;40968;52.342;5.528;2024-03-23T15:01:29;17.27;;;4.75;;
43160;SDS011;40968;52.342;5.528;2024-03-23T15:03:55;6.75;;;2.13;;
43160;SDS011;40968;52.342;5.528;2024-03-23T15:06:21;18.90;;;9.65;;
43160;SDS011;40968;52.342;5.528;2024-03-23T15:08:47;20.70;;;7.75;;
43160;SDS011;40968;52.342;5.528;2024-03-23T15:11:15;8.98;;;3.45;;
43160;SDS011;40968;52.342;5.528;2024-03-23T15:13:44;31.15;;;5.03;;
43160;SDS011;40968;52.342;5.528;2024-03-23T15:16:16;6.50;;;2.28;;
43160;SDS011;40968;52.342;5.528;2024-03-23T15:18:42;11.77;;;4.20;;
43160;SDS011;40968;52.342;5.528;2024-03-23T15:21:08;8.90;;;1.98;;
43160;SDS011;40968;52.342;5.528;2024-03-23T15:23:36;17.08;;;6.32;;
43160;SDS011;40968;52.342;5.528;2024-03-23T15:26:03;14.13;;;4.13;;
43160;SDS011;40968;52.342;5.528;2024-03-23T15:28:32;12.70;;;3.25;;
43160;SDS011;40968;52.342;5.528;2024-03-23T15:31:06;15.50;;;4.57;;